createdAt,value
2023-06-10T00:01:38.042Z,18.30
2023-06-10T00:06:45.103Z,18.20
2023-06-10T00:11:50.809Z,18.20
2023-06-10T00:16:57.274Z,18.00
2023-06-10T00:22:02.823Z,18.00
2023-06-10T00:27:08.735Z,17.90
2023-06-10T00:32:14.369Z,17.80
2023-06-10T00:37:19.834Z,17.80
2023-06-10T00:42:25.996Z,17.70
2023-06-10T00:47:32.496Z,17.60
2023-06-10T00:52:38.625Z,17.60
2023-06-10T00:57:45.660Z,17.60
2023-06-10T01:02:52.829Z,17.60
2023-06-10T01:08:02.150Z,17.60
2023-06-10T01:13:13.609Z,17.60
2023-06-10T01:18:19.152Z,17.50
2023-06-10T01:23:25.357Z,17.50
2023-06-10T01:28:53.268Z,17.50
2023-06-10T01:33:58.870Z,17.40
2023-06-10T01:39:09.182Z,17.40
2023-06-10T01:44:16.437Z,17.30
2023-06-10T01:49:23.832Z,17.20
2023-06-10T01:54:29.293Z,17.30
2023-06-10T01:59:34.811Z,17.40
2023-06-10T02:04:40.302Z,17.30
2023-06-10T02:09:45.827Z,17.20
2023-06-10T02:14:51.958Z,17.10
2023-06-10T02:19:58.238Z,17.00
2023-06-10T02:25:05.121Z,17.10
2023-06-10T02:30:11.827Z,17.10
2023-06-10T02:35:18.648Z,17.00
2023-06-10T02:40:24.198Z,17.00
2023-06-10T02:45:29.926Z,17.00
2023-06-10T02:50:35.485Z,16.90
2023-06-10T02:55:42.232Z,16.90
2023-06-10T03:00:48.354Z,16.90
2023-06-10T03:05:53.848Z,16.90
2023-06-10T03:10:59.273Z,16.90
2023-06-10T03:16:05.885Z,16.80
2023-06-10T03:21:11.595Z,16.90
2023-06-10T03:26:17.978Z,17.00
2023-06-10T03:31:23.545Z,17.00
2023-06-10T03:36:30.578Z,17.00
2023-06-10T03:41:36.170Z,17.10
2023-06-10T03:46:42.075Z,17.30
2023-06-10T03:51:47.728Z,17.30
2023-06-10T03:56:56.382Z,17.40
2023-06-10T04:02:03.133Z,17.50
2023-06-10T04:07:09.460Z,17.50
2023-06-10T04:12:15.829Z,17.60
2023-06-10T04:17:21.445Z,17.70
2023-06-10T04:22:27.444Z,17.80
2023-06-10T04:27:32.924Z,17.90
2023-06-10T04:32:38.417Z,18.00
2023-06-10T04:37:43.866Z,18.10
2023-06-10T04:42:49.270Z,18.20
2023-06-10T04:47:56.848Z,18.40
2023-06-10T04:53:02.310Z,18.50
2023-06-10T04:58:07.841Z,18.60
2023-06-10T05:03:13.344Z,18.70
2023-06-10T05:08:19.101Z,18.90
2023-06-10T05:13:24.573Z,19.20
2023-06-10T05:18:31.224Z,19.40
2023-06-10T05:23:36.624Z,19.90
2023-06-10T05:28:47.916Z,20.30
2023-06-10T05:33:53.299Z,20.30
2023-06-10T05:38:59.861Z,20.60
2023-06-10T05:44:05.751Z,21.00
2023-06-10T05:49:11.769Z,21.50
2023-06-10T05:54:17.206Z,21.50
2023-06-10T05:59:24.407Z,21.60
2023-06-10T06:04:31.075Z,21.60
2023-06-10T06:09:36.590Z,21.80
2023-06-10T06:14:42.022Z,22.60
2023-06-10T06:19:49.080Z,23.10
2023-06-10T06:24:54.603Z,23.20
2023-06-10T06:30:01.448Z,23.80
2023-06-10T06:35:09.794Z,23.50
2023-06-10T06:40:15.736Z,23.00
2023-06-10T06:45:23.928Z,23.00
2023-06-10T06:50:30.178Z,22.90
2023-06-10T06:55:36.622Z,22.80
2023-06-10T07:00:42.152Z,23.40
2023-06-10T07:05:48.421Z,23.70
2023-06-10T07:10:54.513Z,23.40
2023-06-10T07:16:00.395Z,23.50
2023-06-10T07:21:05.991Z,24.20
2023-06-10T07:26:14.949Z,24.70
2023-06-10T07:31:20.952Z,24.90
2023-06-10T07:36:28.056Z,25.30
2023-06-10T07:41:39.563Z,25.90
2023-06-10T07:46:45.279Z,26.00
2023-06-10T07:51:50.946Z,26.40
2023-06-10T07:56:56.536Z,26.60
2023-06-10T08:02:02.159Z,26.70
2023-06-10T08:07:08.741Z,26.80
2023-06-10T08:12:14.297Z,26.80
2023-06-10T08:17:19.885Z,27.20
2023-06-10T08:22:25.779Z,27.70
2023-06-10T08:27:32.676Z,27.40
2023-06-10T08:32:53.170Z,27.40
2023-06-10T08:38:04.798Z,27.60
2023-06-10T08:43:28.585Z,27.50
2023-06-10T08:48:36.807Z,27.40
2023-06-10T08:53:49.445Z,27.50
2023-06-10T08:58:59.689Z,28.00
2023-06-10T14:20:32.680Z,28.10
2023-06-10T14:25:38.293Z,28.00
2023-06-10T14:30:43.624Z,28.00
2023-06-10T14:35:49.158Z,28.00
2023-06-10T14:40:54.522Z,27.90
2023-06-10T14:46:00.034Z,27.60
2023-06-10T14:51:05.551Z,27.30
2023-06-10T14:56:11.964Z,27.30
2023-06-10T15:01:17.216Z,27.10
2023-06-10T15:06:24.264Z,26.70
2023-06-10T15:11:29.797Z,26.80
2023-06-10T15:16:35.245Z,26.80
2023-06-10T15:21:40.801Z,26.80
2023-06-10T15:26:46.316Z,26.70
2023-06-10T15:31:51.740Z,26.60
2023-06-10T15:36:58.244Z,26.40
2023-06-10T15:42:04.288Z,26.30
2023-06-10T15:47:09.761Z,26.20
2023-06-10T15:52:15.214Z,26.20
2023-06-10T15:57:22.862Z,26.10
2023-06-10T16:02:28.061Z,26.00
2023-06-10T16:07:33.403Z,25.70
2023-06-10T16:12:39.936Z,25.60
2023-06-10T16:17:48.542Z,25.50
2023-06-10T16:22:56.122Z,25.40
2023-06-10T16:28:03.190Z,25.40
2023-06-10T16:33:08.708Z,25.30
2023-06-10T16:38:14.079Z,25.10
2023-06-10T16:43:19.405Z,25.00
2023-06-10T16:48:24.910Z,24.90
2023-06-10T16:53:30.401Z,24.80
2023-06-10T16:58:35.681Z,24.60
2023-06-10T17:03:41.794Z,24.40
2023-06-10T17:08:47.423Z,24.40
2023-06-10T17:13:52.861Z,24.30
2023-06-10T17:18:58.437Z,24.10
2023-06-10T17:24:04.861Z,24.00
2023-06-10T17:29:10.326Z,23.80
2023-06-10T17:34:15.821Z,23.50
2023-06-10T17:39:21.328Z,23.40
2023-06-10T17:44:28.274Z,23.30
2023-06-10T17:49:34.802Z,23.10
2023-06-10T17:54:40.055Z,23.00
2023-06-10T17:59:45.693Z,22.80
2023-06-10T18:04:51.089Z,22.70
2023-06-10T18:09:56.485Z,22.40
2023-06-10T18:15:01.785Z,22.30
2023-06-10T18:20:08.539Z,22.10
2023-06-10T18:25:14.434Z,22.00
2023-06-10T18:30:19.917Z,21.80
2023-06-10T18:35:25.450Z,21.60
2023-06-10T18:40:30.826Z,21.30
2023-06-10T18:45:36.347Z,21.20
2023-06-10T18:50:41.851Z,21.10
2023-06-10T18:55:50.049Z,20.80
2023-06-10T19:00:59.491Z,20.60
2023-06-10T19:06:05.173Z,20.50
2023-06-10T19:11:10.572Z,20.40
2023-06-10T19:16:16.158Z,20.20
2023-06-10T19:21:21.973Z,20.00
2023-06-10T19:26:28.137Z,20.00
2023-06-10T19:31:33.685Z,19.90
2023-06-10T19:36:39.176Z,19.80
2023-06-10T19:41:44.505Z,19.70
2023-06-10T19:46:49.998Z,19.60
2023-06-10T19:51:55.891Z,19.50
2023-06-10T19:57:02.516Z,19.30
2023-06-10T20:02:08.878Z,19.20
2023-06-10T20:07:14.524Z,19.20
2023-06-10T20:12:20.034Z,19.10
2023-06-10T20:17:25.451Z,18.90
2023-06-10T20:22:30.902Z,18.70
2023-06-10T20:27:36.551Z,18.70
2023-06-10T20:32:42.020Z,18.60
2023-06-10T20:37:54.051Z,18.40
2023-06-10T20:42:59.544Z,18.30
2023-06-10T20:48:06.667Z,18.20
2023-06-10T20:53:12.266Z,18.20
2023-06-10T20:58:17.818Z,18.10
2023-06-10T21:03:23.429Z,18.00
2023-06-10T21:08:28.906Z,17.90
2023-06-10T21:13:34.521Z,17.80
2023-06-10T21:18:40.095Z,17.70
2023-06-10T21:23:46.404Z,17.60
2023-06-10T21:28:51.871Z,17.50
2023-06-10T21:33:57.113Z,17.40
2023-06-10T21:39:02.427Z,17.40
2023-06-10T21:44:07.952Z,17.30
2023-06-10T21:49:13.726Z,17.20
2023-06-10T21:54:19.233Z,17.00
2023-06-10T21:59:24.860Z,16.90
2023-06-10T22:04:30.279Z,16.80
2023-06-10T22:09:36.168Z,16.80
2023-06-10T22:14:41.692Z,16.70
2023-06-10T22:19:47.149Z,16.60
2023-06-10T22:24:59.074Z,16.50
2023-06-10T22:30:05.174Z,16.40
2023-06-10T22:35:13.082Z,16.30
2023-06-10T22:40:18.833Z,16.20
2023-06-10T22:45:25.226Z,16.10
2023-06-10T22:50:30.782Z,16.00
2023-06-10T22:55:36.212Z,15.70
2023-06-10T23:00:41.713Z,15.70
2023-06-10T23:05:47.109Z,15.70
2023-06-10T23:10:52.594Z,15.70
2023-06-10T23:15:58.014Z,15.70
2023-06-10T23:21:03.599Z,15.60
2023-06-10T23:26:09.614Z,15.50
2023-06-10T23:31:15.602Z,15.40
2023-06-10T23:36:21.896Z,15.30
2023-06-10T23:41:27.970Z,15.20
2023-06-10T23:46:38.479Z,15.10
2023-06-10T23:51:43.908Z,15.10
2023-06-10T23:56:49.413Z,15.00
